Donington, United Kingdom
Current Conditions -  °F | °C
As of 3:50 AM on Friday 31 Oct 2014 (Local Time) from EGXC Reporting Station
Haze Haze  
Wind Chill: 55°   Ceiling: 25000
Heat Index: 55°   Visibility: 2.5mi
Dew Point: 54°   Wind: 7mph
Humidity: 94%   Direction: 160°SSE
Pressure: 30"   Gusts: NA
Location:  52.9°N, 0.21°W
Report Text: EGXC 310350Z 16006KT 4000 BR FEW045 BKN250 13/12 Q1016 GRN
Loading
Personal Weather Stations






























Interactive Weather Map
Tropical Storm Tracking
New forecast layout! Learn more

10-Day Weather Forecast

Advertisements
Track Severe Weather on mobile